Time;durP1;ratioP1;P1;durP2;ratioP2;P2;SDS_P1;SDS_P2;PMS_P1;PMS_P2;Temp;Humidity;BMP_temperature;BMP_pressure;BME280_temperature;BME280_humidity;BME280_pressure;Samples;Min_cycle;Max_cycle;Signal;HPM_P1;HPM_P2
2023/10/24 00:00:14;;;;;;;0.20;0.20;;;;;;;;;;5133638;28;20035;-75
2023/10/24 00:02:39;;;;;;;0.20;0.20;;;;;;;;;;5115489;28;20499;-75
2023/10/24 00:05:05;;;;;;;0.20;0.20;;;;;;;;;;5115567;28;20073;-74
2023/10/24 00:07:49;;;;;;;0.20;0.20;;;;;;;;;;5133621;28;20022;-75
2023/10/24 00:10:16;;;;;;;0.13;0.13;;;;;;;;;;5135116;28;20042;-74
2023/10/24 00:12:42;;;;;;;0.20;0.20;;;;;;;;;;5116688;28;20378;-75
2023/10/24 00:15:08;;;;;;;0.20;0.20;;;;;;;;;;5135212;28;20031;-75
2023/10/24 00:17:33;;;;;;;0.20;0.20;;;;;;;;;;5133832;28;20034;-74
2023/10/24 00:20:05;;;;;;;0.17;0.17;;;;;;;;;;5115832;28;20106;-74
2023/10/24 00:22:34;;;;;;;0.20;0.20;;;;;;;;;;5133412;27;20071;-75
2023/10/24 00:25:06;;;;;;;0.20;0.20;;;;;;;;;;5133366;28;20035;-75
2023/10/24 00:27:37;;;;;;;0.20;0.20;;;;;;;;;;5133477;27;20039;-75
2023/10/24 00:30:11;;;;;;;0.20;0.20;;;;;;;;;;5136321;28;20031;-75
2023/10/24 00:32:43;;;;;;;0.20;0.20;;;;;;;;;;5118662;28;20035;-75
2023/10/24 00:35:11;;;;;;;0.20;0.20;;;;;;;;;;5137153;28;20035;-75
2023/10/24 00:37:40;;;;;;;0.10;0.10;;;;;;;;;;5101241;28;20308;-74
2023/10/24 00:40:08;;;;;;;0.20;0.20;;;;;;;;;;5136837;28;20504;-75
2023/10/24 00:42:46;;;;;;;0.20;0.20;;;;;;;;;;5136772;28;20527;-73
2023/10/24 00:45:14;;;;;;;0.20;0.20;;;;;;;;;;5136447;28;20114;-73
2023/10/24 00:47:42;;;;;;;0.20;0.20;;;;;;;;;;5136607;28;20045;-74
2023/10/24 00:50:09;;;;;;;0.20;0.20;;;;;;;;;;5118267;28;20516;-73
2023/10/24 00:52:40;;;;;;;0.20;0.20;;;;;;;;;;5136455;28;20027;-74
2023/10/24 00:55:07;;;;;;;0.10;0.10;;;;;;;;;;5118045;28;20039;-74
2023/10/24 00:57:43;;;;;;;0.17;0.17;;;;;;;;;;5136584;28;20031;-73
2023/10/24 01:00:12;;;;;;;0.20;0.20;;;;;;;;;;5136207;28;20035;-74
2023/10/24 01:02:41;;;;;;;0.20;0.20;;;;;;;;;;5100967;28;20458;-73
2023/10/24 01:05:07;;;;;;;0.20;0.20;;;;;;;;;;5136066;28;20027;-73
2023/10/24 01:07:33;;;;;;;0.17;0.17;;;;;;;;;;5117586;28;20480;-72
2023/10/24 01:09:59;;;;;;;0.10;0.10;;;;;;;;;;5136181;28;20035;-73
2023/10/24 01:12:28;;;;;;;0.17;0.17;;;;;;;;;;5100428;28;20033;-73
2023/10/24 01:14:54;;;;;;;0.28;0.28;;;;;;;;;;5135941;28;20031;-73
2023/10/24 01:17:19;;;;;;;0.20;0.20;;;;;;;;;;5136225;28;20042;-73
2023/10/24 01:19:45;;;;;;;0.20;0.20;;;;;;;;;;5117809;28;20122;-73
2023/10/24 01:22:14;;;;;;;0.10;0.10;;;;;;;;;;5135992;27;20073;-74
2023/10/24 01:24:46;;;;;;;0.20;0.20;;;;;;;;;;5135924;28;20027;-73
2023/10/24 01:27:15;;;;;;;0.20;0.20;;;;;;;;;;5117315;28;20035;-74
2023/10/24 01:29:53;;;;;;;0.20;0.20;;;;;;;;;;5117497;28;20035;-73
2023/10/24 01:32:32;;;;;;;0.10;0.10;;;;;;;;;;5117466;28;20435;-74
2023/10/24 01:34:57;;;;;;;0.60;0.60;;;;;;;;;;5135764;28;20073;-73
2023/10/24 01:37:23;;;;;;;0.13;0.13;;;;;;;;;;5117226;28;20043;-72
2023/10/24 01:39:52;;;;;;;0.20;0.20;;;;;;;;;;5135589;27;20019;-75
2023/10/24 01:42:18;;;;;;;0.20;0.20;;;;;;;;;;5135770;28;20043;-75
2023/10/24 01:44:46;;;;;;;0.20;0.20;;;;;;;;;;5135719;28;20500;-75
2023/10/24 01:47:24;;;;;;;0.20;0.20;;;;;;;;;;5117190;28;20537;-74
2023/10/24 01:49:49;;;;;;;0.20;0.20;;;;;;;;;;5135538;28;20568;-75
2023/10/24 01:52:15;;;;;;;0.20;0.20;;;;;;;;;;5135345;28;20059;-75
2023/10/24 01:54:45;;;;;;;0.10;0.10;;;;;;;;;;5135410;28;20451;-74
2023/10/24 01:57:11;;;;;;;0.20;0.20;;;;;;;;;;5135324;28;20031;-75
2023/10/24 01:59:37;;;;;;;0.20;0.20;;;;;;;;;;5116918;28;20039;-75
2023/10/24 02:02:03;;;;;;;0.10;0.10;;;;;;;;;;5116523;28;20037;-75
2023/10/24 02:04:29;;;;;;;0.10;0.10;;;;;;;;;;5135429;28;20025;-74
2023/10/24 02:06:56;;;;;;;0.13;0.13;;;;;;;;;;5100348;28;20083;-74
2023/10/24 02:09:24;;;;;;;0.20;0.20;;;;;;;;;;5137141;28;20035;-74
2023/10/24 02:11:55;;;;;;;0.10;0.10;;;;;;;;;;5135628;28;20046;-74
2023/10/24 02:14:24;;;;;;;0.17;0.17;;;;;;;;;;5099448;28;20042;-75
2023/10/24 02:16:56;;;;;;;0.20;0.20;;;;;;;;;;5117147;28;20115;-75
2023/10/24 02:19:26;;;;;;;0.20;0.20;;;;;;;;;;5117023;28;20489;-76
2023/10/24 02:21:55;;;;;;;0.15;0.15;;;;;;;;;;5116919;28;20031;-77
2023/10/24 02:24:24;;;;;;;0.17;0.17;;;;;;;;;;5116538;28;20027;-75
2023/10/24 02:26:56;;;;;;;0.20;0.20;;;;;;;;;;5135031;28;20058;-75
2023/10/24 02:29:26;;;;;;;0.10;0.10;;;;;;;;;;5135016;28;20019;-74
2023/10/24 02:32:01;;;;;;;0.20;0.20;;;;;;;;;;5134938;28;20035;-75
2023/10/24 02:34:26;;;;;;;0.10;0.10;;;;;;;;;;5116867;28;20045;-75
2023/10/24 02:36:53;;;;;;;0.17;0.17;;;;;;;;;;5135037;28;20031;-75
2023/10/24 02:39:21;;;;;;;0.17;0.17;;;;;;;;;;5135085;28;20494;-74
2023/10/24 02:41:50;;;;;;;0.30;0.30;;;;;;;;;;5116296;28;20130;-75
2023/10/24 02:44:16;;;;;;;0.10;0.10;;;;;;;;;;5134912;28;20031;-74
2023/10/24 02:46:45;;;;;;;0.10;0.10;;;;;;;;;;5134637;28;20035;-75
2023/10/24 02:49:16;;;;;;;2.05;1.98;;;;;;;;;;5134450;28;20463;-74
2023/10/24 02:51:42;;;;;;;0.20;0.20;;;;;;;;;;5115836;28;20130;-75
2023/10/24 02:54:08;;;;;;;0.17;0.17;;;;;;;;;;5134717;28;20023;-75
2023/10/24 02:56:37;;;;;;;0.17;0.17;;;;;;;;;;5134707;28;20113;-75
2023/10/24 02:59:05;;;;;;;0.20;0.20;;;;;;;;;;5134297;28;20038;-75
2023/10/24 03:01:37;;;;;;;0.10;0.10;;;;;;;;;;5116012;28;20073;-75
2023/10/24 03:04:09;;;;;;;0.10;0.10;;;;;;;;;;5110127;28;20486;-74
2023/10/24 03:06:43;;;;;;;0.10;0.10;;;;;;;;;;5111999;28;20112;-74
2023/10/24 03:09:19;;;;;;;0.10;0.10;;;;;;;;;;5130356;28;20845;-72
2023/10/24 03:11:55;;;;;;;0.20;0.20;;;;;;;;;;5130299;28;20037;-73
2023/10/24 03:14:26;;;;;;;0.20;0.20;;;;;;;;;;5130384;28;20071;-73
2023/10/24 03:16:52;;;;;;;0.13;0.13;;;;;;;;;;5130667;28;20046;-73
2023/10/24 03:19:18;;;;;;;0.10;0.10;;;;;;;;;;5129834;28;20015;-73
2023/10/24 03:21:46;;;;;;;3.42;3.28;;;;;;;;;;5129809;27;20046;-73
2023/10/24 03:24:23;;;;;;;0.10;0.10;;;;;;;;;;5112220;28;20110;-73
2023/10/24 03:26:49;;;;;;;0.10;0.10;;;;;;;;;;5111857;28;20046;-74
2023/10/24 03:29:14;;;;;;;0.20;0.20;;;;;;;;;;5130291;28;20039;-74
2023/10/24 03:31:43;;;;;;;0.13;0.13;;;;;;;;;;5111255;28;20094;-74
2023/10/24 03:34:22;;;;;;;0.10;0.10;;;;;;;;;;5129537;28;20062;-74
2023/10/24 03:36:53;;;;;;;0.15;0.15;;;;;;;;;;5129598;28;20371;-74
2023/10/24 03:39:22;;;;;;;0.10;0.10;;;;;;;;;;5130117;28;20110;-73
2023/10/24 03:41:48;;;;;;;0.10;0.10;;;;;;;;;;5129728;28;20035;-74
2023/10/24 03:44:16;;;;;;;0.20;0.20;;;;;;;;;;5130126;28;20045;-74
2023/10/24 03:46:45;;;;;;;0.15;0.15;;;;;;;;;;5129467;28;20386;-74
2023/10/24 03:49:14;;;;;;;0.20;0.20;;;;;;;;;;5129532;28;20446;-73
2023/10/24 03:51:40;;;;;;;0.20;0.20;;;;;;;;;;5129583;28;20066;-73
2023/10/24 03:54:08;;;;;;;0.20;0.20;;;;;;;;;;5129600;28;20418;-73
2023/10/24 03:56:37;;;;;;;0.20;0.20;;;;;;;;;;5129239;28;20456;-74
2023/10/24 03:59:02;;;;;;;0.17;0.17;;;;;;;;;;5129461;28;20402;-72
2023/10/24 04:01:28;;;;;;;0.20;0.20;;;;;;;;;;5129220;28;20031;-73
2023/10/24 04:04:07;;;;;;;0.10;0.10;;;;;;;;;;5130793;27;20031;-74
2023/10/24 04:06:39;;;;;;;0.10;0.10;;;;;;;;;;5133104;28;20126;-74
2023/10/24 04:09:08;;;;;;;0.20;0.20;;;;;;;;;;5135124;28;20084;-74
2023/10/24 04:11:36;;;;;;;0.10;0.10;;;;;;;;;;5115031;28;20396;-72
2023/10/24 04:14:08;;;;;;;0.20;0.20;;;;;;;;;;5132975;28;20031;-73
2023/10/24 04:16:39;;;;;;;0.20;0.20;;;;;;;;;;5114637;28;20382;-72
2023/10/24 04:19:08;;;;;;;8.18;2.05;;;;;;;;;;5132810;28;20073;-72
2023/10/24 04:21:34;;;;;;;1.35;0.45;;;;;;;;;;5132873;28;20027;-73
2023/10/24 04:24:06;;;;;;;0.13;0.13;;;;;;;;;;5133045;28;20035;-72
2023/10/24 04:26:35;;;;;;;0.10;0.10;;;;;;;;;;5097523;28;20045;-72
2023/10/24 04:29:01;;;;;;;0.20;0.20;;;;;;;;;;5132571;28;20019;-74
2023/10/24 04:31:29;;;;;;;4.25;1.67;;;;;;;;;;5132745;28;20058;-73
2023/10/24 04:34:05;;;;;;;0.20;0.20;;;;;;;;;;5133202;28;20497;-74
2023/10/24 04:36:30;;;;;;;0.10;0.10;;;;;;;;;;5132403;28;20039;-73
2023/10/24 04:38:59;;;;;;;0.10;0.10;;;;;;;;;;5132373;28;20103;-74
2023/10/24 04:41:25;;;;;;;0.20;0.20;;;;;;;;;;5132324;28;20130;-72
2023/10/24 04:43:51;;;;;;;0.20;0.20;;;;;;;;;;5132660;28;20098;-73
2023/10/24 04:46:16;;;;;;;0.10;0.10;;;;;;;;;;5132421;28;20031;-73
2023/10/24 04:48:44;;;;;;;0.10;0.10;;;;;;;;;;5132016;28;20042;-75
2023/10/24 04:51:19;;;;;;;0.10;0.10;;;;;;;;;;5132429;28;20031;-74
2023/10/24 04:53:44;;;;;;;0.35;0.30;;;;;;;;;;5132551;28;20050;-74
2023/10/24 04:56:22;;;;;;;0.10;0.10;;;;;;;;;;5131274;28;20051;-75
2023/10/24 04:58:49;;;;;;;0.25;0.25;;;;;;;;;;5132372;28;20525;-75
2023/10/24 05:01:37;;;;;;;0.10;0.10;;;;;;;;;;5130891;28;20031;-75
2023/10/24 05:04:06;;;;;;;0.10;0.10;;;;;;;;;;5131804;28;20070;-73
2023/10/24 05:06:32;;;;;;;0.13;0.13;;;;;;;;;;5131732;28;20039;-74
2023/10/24 05:09:04;;;;;;;0.30;0.30;;;;;;;;;;5109310;28;20023;-75
2023/10/24 05:11:40;;;;;;;0.10;0.10;;;;;;;;;;5106537;28;20526;-75
2023/10/24 05:14:06;;;;;;;0.10;0.10;;;;;;;;;;5110174;27;20031;-73
2023/10/24 05:16:31;;;;;;;0.10;0.10;;;;;;;;;;5131215;28;20096;-73
2023/10/24 05:18:57;;;;;;;0.20;0.20;;;;;;;;;;5130358;28;20042;-73
2023/10/24 05:21:23;;;;;;;0.10;0.10;;;;;;;;;;5122333;27;20059;-74
2023/10/24 05:23:49;;;;;;;0.10;0.10;;;;;;;;;;5109457;28;20027;-74
2023/10/24 05:26:17;;;;;;;0.20;0.20;;;;;;;;;;5091274;28;20059;-73
2023/10/24 05:28:43;;;;;;;0.20;0.20;;;;;;;;;;5119282;28;20052;-74
2023/10/24 05:31:17;;;;;;;0.10;0.10;;;;;;;;;;5129083;28;20446;-73
2023/10/24 05:33:46;;;;;;;0.10;0.10;;;;;;;;;;5113065;28;20030;-73
2023/10/24 05:36:12;;;;;;;0.20;0.20;;;;;;;;;;5131976;27;20024;-74
2023/10/24 05:38:38;;;;;;;0.10;0.10;;;;;;;;;;5129958;28;20043;-74
2023/10/24 05:41:03;;;;;;;0.17;0.17;;;;;;;;;;5131339;28;20311;-74
2023/10/24 05:43:29;;;;;;;0.80;0.73;;;;;;;;;;5131393;28;20124;-71
2023/10/24 05:45:58;;;;;;;0.20;0.20;;;;;;;;;;5131356;28;20030;-73
2023/10/24 05:48:25;;;;;;;0.10;0.10;;;;;;;;;;5131223;28;20026;-71
2023/10/24 05:50:54;;;;;;;0.10;0.10;;;;;;;;;;5111552;28;20157;-73
2023/10/24 05:53:19;;;;;;;0.10;0.10;;;;;;;;;;5131206;28;20386;-73
2023/10/24 05:55:45;;;;;;;0.15;0.15;;;;;;;;;;5112026;28;20039;-73
2023/10/24 05:58:13;;;;;;;0.10;0.10;;;;;;;;;;5130775;28;20048;-72
2023/10/24 06:00:43;;;;;;;0.10;0.10;;;;;;;;;;5131056;28;20115;-72
2023/10/24 06:03:14;;;;;;;0.32;0.32;;;;;;;;;;5131041;28;20377;-73
2023/10/24 06:05:42;;;;;;;0.10;0.10;;;;;;;;;;5114188;28;20051;-72
2023/10/24 06:08:11;;;;;;;0.15;0.15;;;;;;;;;;5132076;27;20023;-73
2023/10/24 06:10:37;;;;;;;0.10;0.10;;;;;;;;;;5112772;28;20035;-72
2023/10/24 06:13:03;;;;;;;0.20;0.20;;;;;;;;;;5130926;28;20035;-73
2023/10/24 06:15:28;;;;;;;0.17;0.17;;;;;;;;;;5131014;28;20018;-73
2023/10/24 06:17:57;;;;;;;0.10;0.10;;;;;;;;;;5130952;28;20442;-73
2023/10/24 06:20:28;;;;;;;0.20;0.20;;;;;;;;;;5130585;27;20039;-73
2023/10/24 06:22:59;;;;;;;0.17;0.17;;;;;;;;;;5129146;27;20051;-74
2023/10/24 06:25:27;;;;;;;0.20;0.20;;;;;;;;;;5130761;28;20027;-74
2023/10/24 06:27:53;;;;;;;0.30;0.30;;;;;;;;;;5130015;28;20034;-75
2023/10/24 06:30:18;;;;;;;0.15;0.15;;;;;;;;;;5124096;28;20110;-76
2023/10/24 06:32:44;;;;;;;0.20;0.20;;;;;;;;;;5097876;28;20139;-76
2023/10/24 06:35:10;;;;;;;0.10;0.10;;;;;;;;;;5130792;28;20019;-72
2023/10/24 06:37:35;;;;;;;0.68;0.68;;;;;;;;;;5130709;28;20038;-75
2023/10/24 06:40:01;;;;;;;0.30;0.30;;;;;;;;;;5111098;28;20033;-74
2023/10/24 06:42:27;;;;;;;0.20;0.20;;;;;;;;;;5109276;28;20047;-74
2023/10/24 06:44:52;;;;;;;0.17;0.17;;;;;;;;;;5111899;28;20023;-73
2023/10/24 06:47:18;;;;;;;0.10;0.10;;;;;;;;;;5129161;28;20413;-73
2023/10/24 06:49:44;;;;;;;0.13;0.13;;;;;;;;;;5130582;28;20104;-73
2023/10/24 06:52:10;;;;;;;0.20;0.20;;;;;;;;;;5130098;28;20039;-73
2023/10/24 06:54:35;;;;;;;0.22;0.22;;;;;;;;;;5111943;28;20118;-73
2023/10/24 06:57:06;;;;;;;0.20;0.20;;;;;;;;;;5100289;28;20999;-74
2023/10/24 06:59:32;;;;;;;0.20;0.20;;;;;;;;;;5125190;28;20130;-72
2023/10/24 07:01:57;;;;;;;0.30;0.30;;;;;;;;;;5119526;28;20114;-74
2023/10/24 07:04:23;;;;;;;0.20;0.20;;;;;;;;;;5108994;28;20028;-74
2023/10/24 07:06:48;;;;;;;0.20;0.20;;;;;;;;;;5119511;28;20035;-74
2023/10/24 07:09:14;;;;;;;0.20;0.20;;;;;;;;;;5110655;28;20043;-73
2023/10/24 07:11:40;;;;;;;0.20;0.20;;;;;;;;;;5129352;28;20390;-74
2023/10/24 07:14:05;;;;;;;0.20;0.20;;;;;;;;;;5129771;28;20047;-74
2023/10/24 07:16:31;;;;;;;0.20;0.20;;;;;;;;;;5102925;28;20638;-72
2023/10/24 07:18:56;;;;;;;0.20;0.20;;;;;;;;;;5108179;28;20027;-73
2023/10/24 07:21:22;;;;;;;0.20;0.20;;;;;;;;;;5108049;28;20043;-72
2023/10/24 07:23:48;;;;;;;0.13;0.13;;;;;;;;;;5108134;28;20498;-72
2023/10/24 07:26:15;;;;;;;1.02;0.60;;;;;;;;;;5108749;28;20097;-74
2023/10/24 07:28:41;;;;;;;3.60;2.22;;;;;;;;;;5108419;28;20027;-73
2023/10/24 07:31:06;;;;;;;5.28;0.57;;;;;;;;;;5108334;28;20062;-73
2023/10/24 07:33:32;;;;;;;0.85;0.63;;;;;;;;;;5108120;28;20032;-73
2023/10/24 07:36:04;;;;;;;1.05;0.40;;;;;;;;;;5108039;28;20043;-73
2023/10/24 07:38:30;;;;;;;4.70;1.10;;;;;;;;;;5110330;28;20035;-69
2023/10/24 07:40:55;;;;;;;4.13;0.85;;;;;;;;;;5111964;28;20429;-69
2023/10/24 07:43:21;;;;;;;1.50;0.57;;;;;;;;;;5112354;28;20039;-70
2023/10/24 07:45:50;;;;;;;5.68;1.20;;;;;;;;;;5112358;28;20084;-69
2023/10/24 07:48:16;;;;;;;0.77;0.43;;;;;;;;;;5112184;28;20451;-70
2023/10/24 07:50:55;;;;;;;15.38;1.73;;;;;;;;;;5111460;28;20115;-69
2023/10/24 07:53:21;;;;;;;6.35;0.82;;;;;;;;;;5112513;28;20050;-69
2023/10/24 07:55:47;;;;;;;0.73;0.60;;;;;;;;;;5112585;28;20453;-68
2023/10/24 07:58:16;;;;;;;6.45;2.08;;;;;;;;;;5111824;28;20031;-69
2023/10/24 08:00:42;;;;;;;5.28;0.95;;;;;;;;;;5111717;28;20041;-69
2023/10/24 08:03:08;;;;;;;2.10;0.63;;;;;;;;;;5112076;28;20122;-68
2023/10/24 08:05:34;;;;;;;7.28;1.92;;;;;;;;;;5112516;28;20123;-68
2023/10/24 08:07:59;;;;;;;0.17;0.17;;;;;;;;;;5111812;28;20359;-68
2023/10/24 08:10:26;;;;;;;5.50;0.90;;;;;;;;;;5111362;28;20046;-69
2023/10/24 08:12:52;;;;;;;2.28;0.77;;;;;;;;;;5111840;28;20028;-74
2023/10/24 08:15:17;;;;;;;7.13;1.27;;;;;;;;;;5111476;28;20032;-73
2023/10/24 08:17:43;;;;;;;0.38;0.28;;;;;;;;;;5111474;28;20106;-73
2023/10/24 08:20:09;;;;;;;0.70;0.40;;;;;;;;;;5112192;28;20448;-73
2023/10/24 08:22:35;;;;;;;2.90;0.88;;;;;;;;;;5119189;28;20038;-74
2023/10/24 08:25:00;;;;;;;6.10;1.73;;;;;;;;;;5109207;28;20471;-73
2023/10/24 08:27:26;;;;;;;2.05;0.88;;;;;;;;;;5110066;28;20039;-74
2023/10/24 08:29:51;;;;;;;6.40;1.08;;;;;;;;;;5092909;28;20035;-72
2023/10/24 08:32:17;;;;;;;3.83;0.30;;;;;;;;;;5111310;28;20027;-73
2023/10/24 08:34:43;;;;;;;7.28;2.35;;;;;;;;;;5110856;28;20032;-73
2023/10/24 08:37:09;;;;;;;1.77;0.30;;;;;;;;;;5111273;28;20375;-73
2023/10/24 08:39:35;;;;;;;8.38;1.65;;;;;;;;;;5121300;28;20439;-72
2023/10/24 08:42:01;;;;;;;7.28;0.95;;;;;;;;;;5131660;28;20489;-75
2023/10/24 08:44:27;;;;;;;0.30;0.30;;;;;;;;;;5131501;28;20054;-73
2023/10/24 08:46:53;;;;;;;3.95;0.98;;;;;;;;;;5125446;28;20347;-75
2023/10/24 08:49:19;;;;;;;2.13;1.40;;;;;;;;;;5118650;27;20235;-73
2023/10/24 08:51:45;;;;;;;10.88;1.38;;;;;;;;;;5123216;28;20120;-73
2023/10/24 08:54:11;;;;;;;2.50;0.82;;;;;;;;;;5111392;28;20049;-73
2023/10/24 08:56:39;;;;;;;21.85;1.88;;;;;;;;;;5124354;28;20113;-74
2023/10/24 08:59:07;;;;;;;4.68;1.20;;;;;;;;;;5118717;28;20027;-73
2023/10/24 09:01:34;;;;;;;5.38;0.85;;;;;;;;;;5101862;28;20543;-73
2023/10/24 09:04:00;;;;;;;1.83;0.85;;;;;;;;;;5096956;28;20089;-74
2023/10/24 09:06:31;;;;;;;11.07;3.60;;;;;;;;;;5093167;28;20466;-75
2023/10/24 09:09:00;;;;;;;14.45;1.88;;;;;;;;;;5118024;28;20044;-74
2023/10/24 09:11:46;;;;;;;1.98;1.13;;;;;;;;;;5122710;28;20453;-73
2023/10/24 09:14:12;;;;;;;5.95;1.48;;;;;;;;;;5122535;28;20023;-74
2023/10/24 09:16:40;;;;;;;8.83;1.10;;;;;;;;;;5119032;28;20608;-74
2023/10/24 09:19:11;;;;;;;4.95;0.80;;;;;;;;;;5092390;28;20172;-73
2023/10/24 09:21:37;;;;;;;0.82;0.60;;;;;;;;;;5120238;28;20027;-74
2023/10/24 09:24:12;;;;;;;2.15;1.00;;;;;;;;;;5115595;28;20035;-75
2023/10/24 09:26:50;;;;;;;11.32;1.38;;;;;;;;;;5112758;28;20390;-75
2023/10/24 09:29:20;;;;;;;1.38;0.55;;;;;;;;;;5089336;28;20414;-74
2023/10/24 09:31:47;;;;;;;1.48;0.43;;;;;;;;;;5111822;28;20051;-75
2023/10/24 09:34:12;;;;;;;4.80;1.92;;;;;;;;;;5108355;28;20522;-74
2023/10/24 09:36:38;;;;;;;3.92;1.15;;;;;;;;;;5089957;28;20028;-74
2023/10/24 09:39:04;;;;;;;11.18;1.70;;;;;;;;;;5113249;28;20452;-72
2023/10/24 09:41:33;;;;;;;3.85;1.58;;;;;;;;;;5126907;28;20042;-73
2023/10/24 09:44:02;;;;;;;5.43;1.60;;;;;;;;;;5128956;28;20035;-74
2023/10/24 09:46:28;;;;;;;7.60;1.60;;;;;;;;;;5129957;28;20272;-73
2023/10/24 09:48:58;;;;;;;2.92;1.73;;;;;;;;;;5112151;28;20095;-73
2023/10/24 09:51:24;;;;;;;6.07;2.25;;;;;;;;;;5127876;28;20429;-74
2023/10/24 09:53:50;;;;;;;2.00;1.35;;;;;;;;;;5128377;28;20039;-73
2023/10/24 09:56:17;;;;;;;3.95;1.90;;;;;;;;;;5129983;28;20035;-74
2023/10/24 09:58:43;;;;;;;2.17;1.60;;;;;;;;;;5114970;28;20051;-73
2023/10/24 10:01:09;;;;;;;9.98;2.35;;;;;;;;;;5089798;28;20078;-73
2023/10/24 10:03:35;;;;;;;9.63;1.33;;;;;;;;;;5108015;28;20466;-73
2023/10/24 10:06:11;;;;;;;7.25;2.38;;;;;;;;;;5089677;28;20454;-74
2023/10/24 10:08:37;;;;;;;5.15;1.40;;;;;;;;;;5108239;28;20055;-74
2023/10/24 10:11:05;;;;;;;2.20;0.40;;;;;;;;;;5108237;28;20035;-73
2023/10/24 10:13:34;;;;;;;11.57;1.75;;;;;;;;;;5107995;28;20320;-73
2023/10/24 10:16:06;;;;;;;6.78;1.92;;;;;;;;;;5107787;28;20321;-74
2023/10/24 10:18:39;;;;;;;2.40;0.80;;;;;;;;;;5107891;28;20111;-74
2023/10/24 10:21:07;;;;;;;0.20;0.20;;;;;;;;;;5107605;28;20047;-74
2023/10/24 10:23:51;;;;;;;0.38;0.35;;;;;;;;;;5107688;28;20031;-73
2023/10/24 10:26:16;;;;;;;0.90;0.55;;;;;;;;;;5108049;28;20526;-74
2023/10/24 10:28:42;;;;;;;7.85;2.28;;;;;;;;;;5107497;28;20019;-74
2023/10/24 10:31:21;;;;;;;5.32;1.65;;;;;;;;;;5107665;28;20039;-74
2023/10/24 10:33:47;;;;;;;1.17;0.57;;;;;;;;;;5108231;28;20191;-72
2023/10/24 10:36:12;;;;;;;9.63;1.65;;;;;;;;;;5107519;28;20049;-74
2023/10/24 10:38:44;;;;;;;4.68;0.82;;;;;;;;;;5107481;28;20039;-74
2023/10/24 10:41:22;;;;;;;5.72;1.58;;;;;;;;;;5107293;28;20081;-74
2023/10/24 10:43:49;;;;;;;2.47;1.20;;;;;;;;;;5107290;28;20088;-74
2023/10/24 10:46:18;;;;;;;3.40;0.80;;;;;;;;;;5107439;28;20077;-71
2023/10/24 10:48:44;;;;;;;6.45;1.30;;;;;;;;;;5107383;28;20521;-75
2023/10/24 10:51:15;;;;;;;1.48;0.45;;;;;;;;;;5106892;28;20118;-74
2023/10/24 10:53:48;;;;;;;6.15;1.75;;;;;;;;;;5106920;28;20136;-73
2023/10/24 10:56:23;;;;;;;3.30;0.88;;;;;;;;;;5107514;28;20039;-74
2023/10/24 10:59:04;;;;;;;0.47;0.47;;;;;;;;;;5089366;28;20063;-73
2023/10/24 11:01:36;;;;;;;0.38;0.35;;;;;;;;;;5090150;28;20387;-74
2023/10/24 11:04:01;;;;;;;12.02;2.15;;;;;;;;;;5109279;28;20035;-74
2023/10/24 11:06:28;;;;;;;0.20;0.20;;;;;;;;;;5108568;28;20028;-72
2023/10/24 11:09:06;;;;;;;1.25;0.55;;;;;;;;;;5090863;28;20119;-73
2023/10/24 11:11:32;;;;;;;0.20;0.20;;;;;;;;;;5109176;28;20105;-74
2023/10/24 11:14:16;;;;;;;5.05;2.45;;;;;;;;;;5108445;28;20027;-72
2023/10/24 11:16:42;;;;;;;9.48;2.13;;;;;;;;;;5108530;28;20088;-74
2023/10/24 11:19:20;;;;;;;8.02;1.85;;;;;;;;;;5108694;28;20036;-73
2023/10/24 11:21:50;;;;;;;4.03;1.45;;;;;;;;;;5108539;28;20050;-74
2023/10/24 11:24:20;;;;;;;6.03;1.17;;;;;;;;;;5108738;28;20039;-74
2023/10/24 11:26:46;;;;;;;8.13;2.92;;;;;;;;;;5108549;28;20098;-72
2023/10/24 11:29:13;;;;;;;2.85;0.80;;;;;;;;;;5090279;28;20435;-73
2023/10/24 11:31:39;;;;;;;2.88;0.80;;;;;;;;;;5120129;28;20031;-74
2023/10/24 11:34:20;;;;;;;6.22;2.00;;;;;;;;;;5111351;28;20387;-74
2023/10/24 11:36:46;;;;;;;1.00;0.55;;;;;;;;;;5128696;28;20038;-70
2023/10/24 11:39:15;;;;;;;4.85;1.10;;;;;;;;;;5111178;28;20414;-73
2023/10/24 11:41:41;;;;;;;1.53;1.07;;;;;;;;;;5128785;28;20040;-75
2023/10/24 11:44:06;;;;;;;0.47;0.47;;;;;;;;;;5128843;28;20533;-70
2023/10/24 11:46:32;;;;;;;0.45;0.45;;;;;;;;;;5129419;28;20129;-74
2023/10/24 11:48:57;;;;;;;6.90;2.80;;;;;;;;;;5131859;28;20031;-75
2023/10/24 11:51:23;;;;;;;3.80;1.23;;;;;;;;;;5131352;28;20038;-73
2023/10/24 11:53:49;;;;;;;0.45;0.32;;;;;;;;;;5112904;28;20110;-75
2023/10/24 11:56:15;;;;;;;2.72;0.57;;;;;;;;;;5131796;28;20037;-73
2023/10/24 11:58:41;;;;;;;6.93;2.97;;;;;;;;;;5129426;28;20432;-75
2023/10/24 12:01:07;;;;;;;3.22;0.80;;;;;;;;;;5126712;28;20416;-75
2023/10/24 12:03:40;;;;;;;2.55;0.90;;;;;;;;;;5109073;28;20073;-73
2023/10/24 12:06:07;;;;;;;0.80;0.60;;;;;;;;;;5090578;28;20410;-74
2023/10/24 12:08:34;;;;;;;12.90;2.50;;;;;;;;;;5108422;28;20038;-75
2023/10/24 12:11:00;;;;;;;7.07;2.08;;;;;;;;;;5108846;28;20055;-76
2023/10/24 12:13:25;;;;;;;5.03;1.50;;;;;;;;;;5108470;28;20431;-73
2023/10/24 12:15:51;;;;;;;11.80;2.08;;;;;;;;;;5119516;28;20535;-74
2023/10/24 12:18:17;;;;;;;6.00;1.85;;;;;;;;;;5128883;28;20026;-73
2023/10/24 12:20:43;;;;;;;1.77;0.47;;;;;;;;;;5128720;28;20065;-75
2023/10/24 12:23:09;;;;;;;2.88;0.75;;;;;;;;;;5109731;28;20035;-74
2023/10/24 12:25:34;;;;;;;3.72;0.57;;;;;;;;;;5112288;28;20201;-75
2023/10/24 12:28:00;;;;;;;11.68;1.65;;;;;;;;;;5131965;28;20027;-75
2023/10/24 12:30:26;;;;;;;7.18;0.95;;;;;;;;;;5113589;28;20039;-74
2023/10/24 12:32:52;;;;;;;7.03;2.22;;;;;;;;;;5131675;28;20385;-72
2023/10/24 12:35:19;;;;;;;17.88;1.85;;;;;;;;;;5132200;28;20031;-75
2023/10/24 12:37:44;;;;;;;2.67;1.02;;;;;;;;;;5131942;28;20524;-75
2023/10/24 12:40:10;;;;;;;0.52;0.52;;;;;;;;;;5113440;28;20035;-75
2023/10/24 12:42:36;;;;;;;7.00;2.17;;;;;;;;;;5107850;28;20039;-75
2023/10/24 12:45:02;;;;;;;6.85;1.92;;;;;;;;;;5129506;27;20031;-75
2023/10/24 12:47:28;;;;;;;12.25;2.78;;;;;;;;;;5132206;28;20033;-76
2023/10/24 12:49:54;;;;;;;16.95;1.23;;;;;;;;;;5131583;27;20118;-72
2023/10/24 12:52:19;;;;;;;2.42;0.98;;;;;;;;;;5095539;28;20439;-76
2023/10/24 12:54:45;;;;;;;0.40;0.40;;;;;;;;;;5131572;28;20479;-74
2023/10/24 12:57:11;;;;;;;9.00;1.63;;;;;;;;;;5131858;27;20028;-75
2023/10/24 12:59:36;;;;;;;8.13;2.10;;;;;;;;;;5113487;28;20066;-73
2023/10/24 13:02:02;;;;;;;7.07;1.20;;;;;;;;;;5112835;28;20046;-75
2023/10/24 13:04:28;;;;;;;9.15;2.17;;;;;;;;;;5119670;28;20046;-75
2023/10/24 13:06:54;;;;;;;9.38;2.63;;;;;;;;;;5110783;28;20403;-75
2023/10/24 13:09:20;;;;;;;9.27;2.83;;;;;;;;;;5110976;28;20088;-74
2023/10/24 13:11:46;;;;;;;3.65;1.85;;;;;;;;;;5108044;28;20112;-75
2023/10/24 13:14:12;;;;;;;4.93;1.92;;;;;;;;;;5090381;28;20047;-75
2023/10/24 13:16:38;;;;;;;1.10;0.65;;;;;;;;;;5122674;28;20038;-74
2023/10/24 13:19:05;;;;;;;11.27;2.28;;;;;;;;;;5128410;28;20109;-73
2023/10/24 13:21:35;;;;;;;10.68;2.28;;;;;;;;;;5128317;28;20232;-73
2023/10/24 13:24:00;;;;;;;11.82;3.20;;;;;;;;;;5128253;28;20523;-74
2023/10/24 13:26:26;;;;;;;11.93;2.38;;;;;;;;;;5128979;28;20501;-74
2023/10/24 13:28:51;;;;;;;11.60;1.95;;;;;;;;;;5128928;28;20358;-74
2023/10/24 13:31:17;;;;;;;10.02;2.65;;;;;;;;;;5128102;28;20041;-75
2023/10/24 13:33:44;;;;;;;18.50;2.47;;;;;;;;;;5128829;28;20031;-74
2023/10/24 13:36:11;;;;;;;11.55;2.38;;;;;;;;;;5128685;27;20039;-73
2023/10/24 13:38:37;;;;;;;13.27;3.17;;;;;;;;;;5128447;28;20549;-73
2023/10/24 13:41:03;;;;;;;10.23;2.35;;;;;;;;;;5128478;28;20192;-74
2023/10/24 13:43:28;;;;;;;15.30;2.45;;;;;;;;;;5129231;28;20145;-74
2023/10/24 13:45:54;;;;;;;11.80;2.33;;;;;;;;;;5131258;28;20106;-74
2023/10/24 13:48:20;;;;;;;5.00;1.48;;;;;;;;;;5122991;28;20026;-75
2023/10/24 13:50:45;;;;;;;2.45;0.75;;;;;;;;;;5124087;28;20027;-74
2023/10/24 13:53:12;;;;;;;1.33;0.85;;;;;;;;;;5124479;28;20122;-72
2023/10/24 13:55:37;;;;;;;8.32;1.90;;;;;;;;;;5125788;28;20110;-73
2023/10/24 13:58:03;;;;;;;11.02;2.08;;;;;;;;;;5099266;28;20042;-73
2023/10/24 14:00:29;;;;;;;10.65;2.35;;;;;;;;;;5123877;28;20027;-75
2023/10/24 14:02:55;;;;;;;4.72;1.88;;;;;;;;;;5128533;28;20083;-73
2023/10/24 14:05:20;;;;;;;4.28;1.45;;;;;;;;;;5128448;28;20046;-72
2023/10/24 14:07:46;;;;;;;16.45;3.28;;;;;;;;;;5119478;28;20070;-74
2023/10/24 14:10:12;;;;;;;7.32;1.73;;;;;;;;;;5107586;28;20038;-75
2023/10/24 14:12:38;;;;;;;15.07;3.80;;;;;;;;;;5109547;28;20027;-74
2023/10/24 14:15:04;;;;;;;12.70;3.38;;;;;;;;;;5121517;28;20068;-75
2023/10/24 14:17:30;;;;;;;11.35;3.00;;;;;;;;;;5119284;28;20032;-75
2023/10/24 14:19:55;;;;;;;12.77;2.67;;;;;;;;;;5123384;28;20031;-75
2023/10/24 14:22:21;;;;;;;18.88;3.53;;;;;;;;;;5115320;28;20077;-74
2023/10/24 14:24:47;;;;;;;9.07;2.60;;;;;;;;;;5102437;28;20034;-75
2023/10/24 14:27:13;;;;;;;9.93;2.10;;;;;;;;;;5128412;28;20038;-74
2023/10/24 14:29:39;;;;;;;0.95;0.55;;;;;;;;;;5129662;28;20022;-74
2023/10/24 14:32:05;;;;;;;24.23;5.63;;;;;;;;;;5130791;28;20058;-74
2023/10/24 14:34:30;;;;;;;9.07;2.25;;;;;;;;;;5130075;28;20039;-75
2023/10/24 14:36:56;;;;;;;10.23;2.63;;;;;;;;;;5130476;28;20019;-74
2023/10/24 14:39:21;;;;;;;12.05;3.10;;;;;;;;;;5130353;28;20046;-74
2023/10/24 14:41:47;;;;;;;14.60;2.80;;;;;;;;;;5112438;28;20438;-76
2023/10/24 14:44:13;;;;;;;2.00;1.48;;;;;;;;;;5130845;28;20027;-75